sensor_id;sensor_type;location;lat;lon;timestamp;temperature;humidity
6496;DHT22;3281;47.658;9.166;2022-08-07T00:01:53;18.20;55.10
6496;DHT22;3281;47.658;9.166;2022-08-07T00:04:21;18.20;54.20
6496;DHT22;3281;47.658;9.166;2022-08-07T00:06:49;18.10;58.60
6496;DHT22;3281;47.658;9.166;2022-08-07T00:09:16;18.00;70.80
6496;DHT22;3281;47.658;9.166;2022-08-07T00:11:43;18.00;69.30
6496;DHT22;3281;47.658;9.166;2022-08-07T00:14:10;18.00;72.80
6496;DHT22;3281;47.658;9.166;2022-08-07T00:16:37;17.90;70.00
6496;DHT22;3281;47.658;9.166;2022-08-07T00:19:03;17.80;70.00
6496;DHT22;3281;47.658;9.166;2022-08-07T00:21:30;17.80;71.10
6496;DHT22;3281;47.658;9.166;2022-08-07T00:23:58;17.80;65.00
6496;DHT22;3281;47.658;9.166;2022-08-07T00:26:25;17.90;79.10
6496;DHT22;3281;47.658;9.166;2022-08-07T00:28:52;17.80;75.30
6496;DHT22;3281;47.658;9.166;2022-08-07T00:31:19;17.70;76.90
6496;DHT22;3281;47.658;9.166;2022-08-07T00:33:45;17.70;76.80
6496;DHT22;3281;47.658;9.166;2022-08-07T00:36:12;17.70;77.20
6496;DHT22;3281;47.658;9.166;2022-08-07T00:38:39;17.70;84.30
6496;DHT22;3281;47.658;9.166;2022-08-07T00:41:07;17.70;80.20
6496;DHT22;3281;47.658;9.166;2022-08-07T00:43:34;17.70;85.90
6496;DHT22;3281;47.658;9.166;2022-08-07T00:46:01;17.60;80.00
6496;DHT22;3281;47.658;9.166;2022-08-07T00:48:29;17.60;77.70
6496;DHT22;3281;47.658;9.166;2022-08-07T00:50:56;17.50;76.70
6496;DHT22;3281;47.658;9.166;2022-08-07T00:53:23;17.60;81.90
6496;DHT22;3281;47.658;9.166;2022-08-07T00:55:50;17.60;86.90
6496;DHT22;3281;47.658;9.166;2022-08-07T00:58:19;17.50;85.90
6496;DHT22;3281;47.658;9.166;2022-08-07T01:00:47;17.60;88.30
6496;DHT22;3281;47.658;9.166;2022-08-07T01:03:15;17.60;85.50
6496;DHT22;3281;47.658;9.166;2022-08-07T01:05:43;17.60;88.30
6496;DHT22;3281;47.658;9.166;2022-08-07T01:08:11;17.60;83.70
6496;DHT22;3281;47.658;9.166;2022-08-07T01:10:38;17.70;88.20
6496;DHT22;3281;47.658;9.166;2022-08-07T01:13:07;17.70;79.40
6496;DHT22;3281;47.658;9.166;2022-08-07T01:15:36;17.80;86.60
6496;DHT22;3281;47.658;9.166;2022-08-07T01:18:04;17.70;88.40
6496;DHT22;3281;47.658;9.166;2022-08-07T01:20:33;17.70;88.40
6496;DHT22;3281;47.658;9.166;2022-08-07T01:23:04;17.60;80.80
6496;DHT22;3281;47.658;9.166;2022-08-07T01:25:31;17.70;88.40
6496;DHT22;3281;47.658;9.166;2022-08-07T01:27:59;17.70;90.60
6496;DHT22;3281;47.658;9.166;2022-08-07T01:30:26;17.70;91.10
6496;DHT22;3281;47.658;9.166;2022-08-07T01:32:54;17.70;91.10
6496;DHT22;3281;47.658;9.166;2022-08-07T01:35:21;17.80;89.00
6496;DHT22;3281;47.658;9.166;2022-08-07T01:37:48;17.90;86.20
6496;DHT22;3281;47.658;9.166;2022-08-07T01:40:19;18.00;84.30
6496;DHT22;3281;47.658;9.166;2022-08-07T01:42:46;18.10;78.10
6496;DHT22;3281;47.658;9.166;2022-08-07T01:45:13;18.10;83.00
6496;DHT22;3281;47.658;9.166;2022-08-07T01:47:40;18.10;84.00
6496;DHT22;3281;47.658;9.166;2022-08-07T01:50:08;18.10;77.30
6496;DHT22;3281;47.658;9.166;2022-08-07T01:52:36;18.10;73.30
6496;DHT22;3281;47.658;9.166;2022-08-07T01:55:07;18.20;90.30
6496;DHT22;3281;47.658;9.166;2022-08-07T01:57:38;18.20;82.20
6496;DHT22;3281;47.658;9.166;2022-08-07T02:00:09;18.20;82.10
6496;DHT22;3281;47.658;9.166;2022-08-07T02:02:41;18.30;69.80
6496;DHT22;3281;47.658;9.166;2022-08-07T02:05:11;18.20;68.80
6496;DHT22;3281;47.658;9.166;2022-08-07T02:07:41;18.20;66.70
6496;DHT22;3281;47.658;9.166;2022-08-07T02:10:10;18.30;65.50
6496;DHT22;3281;47.658;9.166;2022-08-07T02:12:42;18.30;77.50
6496;DHT22;3281;47.658;9.166;2022-08-07T02:15:11;18.40;77.60
6496;DHT22;3281;47.658;9.166;2022-08-07T02:17:41;18.30;71.70
6496;DHT22;3281;47.658;9.166;2022-08-07T02:20:10;18.30;80.20
6496;DHT22;3281;47.658;9.166;2022-08-07T02:22:38;18.30;70.10
6496;DHT22;3281;47.658;9.166;2022-08-07T02:25:07;18.30;81.40
6496;DHT22;3281;47.658;9.166;2022-08-07T02:27:35;18.30;75.80
6496;DHT22;3281;47.658;9.166;2022-08-07T02:30:05;18.30;73.20
6496;DHT22;3281;47.658;9.166;2022-08-07T02:32:34;18.30;63.40
6496;DHT22;3281;47.658;9.166;2022-08-07T02:35:03;18.40;72.70
6496;DHT22;3281;47.658;9.166;2022-08-07T02:37:31;18.40;63.50
6496;DHT22;3281;47.658;9.166;2022-08-07T02:39:59;18.40;63.80
6496;DHT22;3281;47.658;9.166;2022-08-07T02:42:28;18.40;48.00
6496;DHT22;3281;47.658;9.166;2022-08-07T02:44:55;18.40;60.90
6496;DHT22;3281;47.658;9.166;2022-08-07T02:47:24;18.50;58.00
6496;DHT22;3281;47.658;9.166;2022-08-07T02:49:51;18.50;77.70
6496;DHT22;3281;47.658;9.166;2022-08-07T02:52:22;18.50;54.50
6496;DHT22;3281;47.658;9.166;2022-08-07T02:54:52;18.50;61.90
6496;DHT22;3281;47.658;9.166;2022-08-07T02:57:20;18.60;60.60
6496;DHT22;3281;47.658;9.166;2022-08-07T02:59:48;18.50;69.70
6496;DHT22;3281;47.658;9.166;2022-08-07T03:02:16;18.50;65.80
6496;DHT22;3281;47.658;9.166;2022-08-07T03:04:45;18.60;71.60
6496;DHT22;3281;47.658;9.166;2022-08-07T03:07:14;18.50;77.40
6496;DHT22;3281;47.658;9.166;2022-08-07T03:09:42;18.40;57.90
6496;DHT22;3281;47.658;9.166;2022-08-07T03:12:10;18.40;69.60
6496;DHT22;3281;47.658;9.166;2022-08-07T03:14:38;18.50;73.70
6496;DHT22;3281;47.658;9.166;2022-08-07T03:17:05;18.40;74.30
6496;DHT22;3281;47.658;9.166;2022-08-07T03:19:33;18.40;67.60
6496;DHT22;3281;47.658;9.166;2022-08-07T03:22:03;18.40;76.30
6496;DHT22;3281;47.658;9.166;2022-08-07T03:24:31;18.30;65.60
6496;DHT22;3281;47.658;9.166;2022-08-07T03:27:00;18.40;67.40
6496;DHT22;3281;47.658;9.166;2022-08-07T03:29:32;18.40;69.00
6496;DHT22;3281;47.658;9.166;2022-08-07T03:32:01;18.30;73.70
6496;DHT22;3281;47.658;9.166;2022-08-07T03:34:29;18.30;65.70
6496;DHT22;3281;47.658;9.166;2022-08-07T03:36:57;18.30;61.30
6496;DHT22;3281;47.658;9.166;2022-08-07T03:39:26;18.40;85.80
6496;DHT22;3281;47.658;9.166;2022-08-07T03:41:54;18.40;67.30
6496;DHT22;3281;47.658;9.166;2022-08-07T03:44:21;18.30;65.50
6496;DHT22;3281;47.658;9.166;2022-08-07T03:46:49;18.40;77.60
6496;DHT22;3281;47.658;9.166;2022-08-07T03:49:15;18.40;83.40
6496;DHT22;3281;47.658;9.166;2022-08-07T03:51:42;18.40;89.20
6496;DHT22;3281;47.658;9.166;2022-08-07T03:54:09;18.40;83.40
6496;DHT22;3281;47.658;9.166;2022-08-07T03:56:38;18.30;73.50
6496;DHT22;3281;47.658;9.166;2022-08-07T03:59:06;18.40;79.20
6496;DHT22;3281;47.658;9.166;2022-08-07T04:01:33;18.40;77.50
6496;DHT22;3281;47.658;9.166;2022-08-07T04:04:05;18.40;75.90
6496;DHT22;3281;47.658;9.166;2022-08-07T04:06:32;18.40;86.30
6496;DHT22;3281;47.658;9.166;2022-08-07T04:09:00;18.30;59.50
6496;DHT22;3281;47.658;9.166;2022-08-07T04:11:28;18.30;73.20
6496;DHT22;3281;47.658;9.166;2022-08-07T04:13:58;18.30;74.20
6496;DHT22;3281;47.658;9.166;2022-08-07T04:16:26;18.30;71.60
6496;DHT22;3281;47.658;9.166;2022-08-07T04:18:52;18.30;73.00
6496;DHT22;3281;47.658;9.166;2022-08-07T04:21:19;18.30;71.00
6496;DHT22;3281;47.658;9.166;2022-08-07T04:23:47;18.30;65.40
6496;DHT22;3281;47.658;9.166;2022-08-07T04:26:14;18.40;78.30
6496;DHT22;3281;47.658;9.166;2022-08-07T04:28:41;18.30;70.30
6496;DHT22;3281;47.658;9.166;2022-08-07T04:31:10;18.30;63.30
6496;DHT22;3281;47.658;9.166;2022-08-07T04:33:37;18.30;77.50
6496;DHT22;3281;47.658;9.166;2022-08-07T04:36:06;18.30;77.40
6496;DHT22;3281;47.658;9.166;2022-08-07T04:38:34;18.30;61.80
6496;DHT22;3281;47.658;9.166;2022-08-07T04:41:01;18.30;68.40
6496;DHT22;3281;47.658;9.166;2022-08-07T04:43:30;18.30;73.60
6496;DHT22;3281;47.658;9.166;2022-08-07T04:46:02;18.30;73.70
6496;DHT22;3281;47.658;9.166;2022-08-07T04:48:39;18.40;79.80
6496;DHT22;3281;47.658;9.166;2022-08-07T04:51:09;18.40;72.90
6496;DHT22;3281;47.658;9.166;2022-08-07T04:53:43;18.40;83.40
6496;DHT22;3281;47.658;9.166;2022-08-07T04:56:17;18.50;86.20
6496;DHT22;3281;47.658;9.166;2022-08-07T04:58:48;18.40;85.90
6496;DHT22;3281;47.658;9.166;2022-08-07T05:01:23;18.40;77.70
6496;DHT22;3281;47.658;9.166;2022-08-07T05:04:04;18.40;77.20
6496;DHT22;3281;47.658;9.166;2022-08-07T05:06:37;18.50;78.70
6496;DHT22;3281;47.658;9.166;2022-08-07T05:09:09;18.50;73.10
6496;DHT22;3281;47.658;9.166;2022-08-07T05:11:43;18.50;73.20
6496;DHT22;3281;47.658;9.166;2022-08-07T05:14:13;18.50;84.60
6496;DHT22;3281;47.658;9.166;2022-08-07T05:16:44;18.50;76.40
6496;DHT22;3281;47.658;9.166;2022-08-07T05:19:18;18.60;78.80
6496;DHT22;3281;47.658;9.166;2022-08-07T05:21:48;18.60;84.00
6496;DHT22;3281;47.658;9.166;2022-08-07T05:24:17;18.60;71.70
6496;DHT22;3281;47.658;9.166;2022-08-07T05:26:47;18.70;72.10
6496;DHT22;3281;47.658;9.166;2022-08-07T05:29:15;18.60;74.70
6496;DHT22;3281;47.658;9.166;2022-08-07T05:31:44;18.70;85.90
6496;DHT22;3281;47.658;9.166;2022-08-07T05:34:16;18.60;63.30
6496;DHT22;3281;47.658;9.166;2022-08-07T05:36:45;18.70;59.50
6496;DHT22;3281;47.658;9.166;2022-08-07T05:39:14;18.80;66.10
6496;DHT22;3281;47.658;9.166;2022-08-07T05:41:42;18.70;59.80
6496;DHT22;3281;47.658;9.166;2022-08-07T05:44:12;18.80;57.70
6496;DHT22;3281;47.658;9.166;2022-08-07T05:46:40;18.80;67.80
6496;DHT22;3281;47.658;9.166;2022-08-07T05:49:08;18.90;81.60
6496;DHT22;3281;47.658;9.166;2022-08-07T05:51:37;18.80;54.80
6496;DHT22;3281;47.658;9.166;2022-08-07T05:54:04;18.90;70.60
6496;DHT22;3281;47.658;9.166;2022-08-07T05:56:32;18.90;69.90
6496;DHT22;3281;47.658;9.166;2022-08-07T05:59:01;18.90;52.50
6496;DHT22;3281;47.658;9.166;2022-08-07T06:01:29;18.90;58.80
6496;DHT22;3281;47.658;9.166;2022-08-07T06:03:57;19.00;66.20
6496;DHT22;3281;47.658;9.166;2022-08-07T06:06:24;19.10;78.30
6496;DHT22;3281;47.658;9.166;2022-08-07T06:08:53;19.10;55.00
6496;DHT22;3281;47.658;9.166;2022-08-07T06:11:20;19.10;60.30
6496;DHT22;3281;47.658;9.166;2022-08-07T06:13:47;19.20;79.80
6496;DHT22;3281;47.658;9.166;2022-08-07T06:16:14;19.20;63.80
6496;DHT22;3281;47.658;9.166;2022-08-07T06:18:42;19.20;52.50
6496;DHT22;3281;47.658;9.166;2022-08-07T06:21:10;19.20;47.50
6496;DHT22;3281;47.658;9.166;2022-08-07T06:23:37;19.20;61.30
6496;DHT22;3281;47.658;9.166;2022-08-07T06:26:09;19.20;57.40
6496;DHT22;3281;47.658;9.166;2022-08-07T06:28:47;19.30;59.30
6496;DHT22;3281;47.658;9.166;2022-08-07T06:31:14;19.30;53.70
6496;DHT22;3281;47.658;9.166;2022-08-07T06:33:41;19.30;55.20
6496;DHT22;3281;47.658;9.166;2022-08-07T06:36:09;19.40;55.30
6496;DHT22;3281;47.658;9.166;2022-08-07T06:38:36;19.40;66.40
6496;DHT22;3281;47.658;9.166;2022-08-07T06:41:07;19.40;68.70
6496;DHT22;3281;47.658;9.166;2022-08-07T06:43:36;19.50;66.80
6496;DHT22;3281;47.658;9.166;2022-08-07T06:46:04;19.50;40.30
6496;DHT22;3281;47.658;9.166;2022-08-07T06:48:30;19.50;44.70
6496;DHT22;3281;47.658;9.166;2022-08-07T06:50:59;19.50;48.60
6496;DHT22;3281;47.658;9.166;2022-08-07T06:53:28;19.50;42.40
6496;DHT22;3281;47.658;9.166;2022-08-07T06:55:56;19.60;72.90
6496;DHT22;3281;47.658;9.166;2022-08-07T06:58:26;19.60;45.90
6496;DHT22;3281;47.658;9.166;2022-08-07T07:00:54;19.60;67.80
6496;DHT22;3281;47.658;9.166;2022-08-07T07:03:24;19.70;55.80
6496;DHT22;3281;47.658;9.166;2022-08-07T07:05:51;19.70;62.40
6496;DHT22;3281;47.658;9.166;2022-08-07T07:08:18;19.60;31.80
6496;DHT22;3281;47.658;9.166;2022-08-07T07:10:50;19.60;34.50
6496;DHT22;3281;47.658;9.166;2022-08-07T07:13:20;19.60;51.10
6496;DHT22;3281;47.658;9.166;2022-08-07T07:15:55;19.60;52.30
6496;DHT22;3281;47.658;9.166;2022-08-07T07:18:27;19.70;54.80
6496;DHT22;3281;47.658;9.166;2022-08-07T07:20:58;19.70;39.60
6496;DHT22;3281;47.658;9.166;2022-08-07T07:23:27;19.70;39.30
6496;DHT22;3281;47.658;9.166;2022-08-07T07:25:58;19.80;68.50
6496;DHT22;3281;47.658;9.166;2022-08-07T07:28:28;19.70;45.20
6496;DHT22;3281;47.658;9.166;2022-08-07T07:31:03;19.80;38.10
6496;DHT22;3281;47.658;9.166;2022-08-07T07:33:33;19.90;50.20
6496;DHT22;3281;47.658;9.166;2022-08-07T07:36:00;19.90;45.10
6496;DHT22;3281;47.658;9.166;2022-08-07T07:38:29;19.90;33.90
6496;DHT22;3281;47.658;9.166;2022-08-07T07:41:02;20.00;27.20
6496;DHT22;3281;47.658;9.166;2022-08-07T07:43:30;20.00;35.90
6496;DHT22;3281;47.658;9.166;2022-08-07T07:46:01;20.10;48.10
6496;DHT22;3281;47.658;9.166;2022-08-07T07:48:30;20.10;49.70
6496;DHT22;3281;47.658;9.166;2022-08-07T07:50:57;20.10;54.40
6496;DHT22;3281;47.658;9.166;2022-08-07T07:53:26;20.00;29.80
6496;DHT22;3281;47.658;9.166;2022-08-07T07:55:57;20.10;54.40
6496;DHT22;3281;47.658;9.166;2022-08-07T07:58:28;20.10;51.20
6496;DHT22;3281;47.658;9.166;2022-08-07T08:00:56;20.10;39.00
6496;DHT22;3281;47.658;9.166;2022-08-07T08:03:26;20.20;45.30
6496;DHT22;3281;47.658;9.166;2022-08-07T08:05:54;20.20;34.60
6496;DHT22;3281;47.658;9.166;2022-08-07T08:08:22;20.20;34.20
6496;DHT22;3281;47.658;9.166;2022-08-07T08:10:50;20.20;56.90
6496;DHT22;3281;47.658;9.166;2022-08-07T08:13:18;20.10;34.10
6496;DHT22;3281;47.658;9.166;2022-08-07T08:15:48;20.10;34.10
6496;DHT22;3281;47.658;9.166;2022-08-07T08:18:16;20.20;41.50
6496;DHT22;3281;47.658;9.166;2022-08-07T08:20:45;20.20;32.80
6496;DHT22;3281;47.658;9.166;2022-08-07T08:23:13;20.20;59.30
6496;DHT22;3281;47.658;9.166;2022-08-07T08:26:02;20.20;39.00
6496;DHT22;3281;47.658;9.166;2022-08-07T08:28:49;20.20;53.00
6496;DHT22;3281;47.658;9.166;2022-08-07T08:31:20;20.10;45.20
6496;DHT22;3281;47.658;9.166;2022-08-07T08:33:49;20.20;38.70
6496;DHT22;3281;47.658;9.166;2022-08-07T08:36:21;20.20;31.10
6496;DHT22;3281;47.658;9.166;2022-08-07T08:38:49;20.20;32.40
6496;DHT22;3281;47.658;9.166;2022-08-07T08:41:21;20.30;32.20
6496;DHT22;3281;47.658;9.166;2022-08-07T08:43:56;20.30;18.10
6496;DHT22;3281;47.658;9.166;2022-08-07T08:46:35;20.30;30.70
6496;DHT22;3281;47.658;9.166;2022-08-07T08:49:12;20.30;35.50
6496;DHT22;3281;47.658;9.166;2022-08-07T08:51:51;20.30;27.60
6496;DHT22;3281;47.658;9.166;2022-08-07T08:54:22;20.30;48.80
6496;DHT22;3281;47.658;9.166;2022-08-07T08:56:51;20.30;30.80
6496;DHT22;3281;47.658;9.166;2022-08-07T08:59:25;20.40;30.70
6496;DHT22;3281;47.658;9.166;2022-08-07T09:01:58;20.40;45.40
6496;DHT22;3281;47.658;9.166;2022-08-07T09:04:36;20.40;44.40
6496;DHT22;3281;47.658;9.166;2022-08-07T09:07:13;20.40;58.60
6496;DHT22;3281;47.658;9.166;2022-08-07T09:09:50;20.40;20.50
6496;DHT22;3281;47.658;9.166;2022-08-07T09:12:31;20.50;19.00
6496;DHT22;3281;47.658;9.166;2022-08-07T09:15:09;20.50;49.30
6496;DHT22;3281;47.658;9.166;2022-08-07T09:17:43;20.40;48.20
6496;DHT22;3281;47.658;9.166;2022-08-07T09:20:20;20.30;20.80
6496;DHT22;3281;47.658;9.166;2022-08-07T09:22:56;20.30;22.20
6496;DHT22;3281;47.658;9.166;2022-08-07T09:25:31;20.30;41.80
6496;DHT22;3281;47.658;9.166;2022-08-07T09:28:03;20.30;28.20
6496;DHT22;3281;47.658;9.166;2022-08-07T09:30:45;20.40;24.60
6496;DHT22;3281;47.658;9.166;2022-08-07T09:33:31;20.40;21.40
6496;DHT22;3281;47.658;9.166;2022-08-07T09:36:08;20.50;34.40
6496;DHT22;3281;47.658;9.166;2022-08-07T09:38:56;20.50;14.60
6496;DHT22;3281;47.658;9.166;2022-08-07T09:41:30;20.60;27.40
6496;DHT22;3281;47.658;9.166;2022-08-07T09:44:03;20.60;31.10
6496;DHT22;3281;47.658;9.166;2022-08-07T09:46:46;20.50;36.40
6496;DHT22;3281;47.658;9.166;2022-08-07T09:49:28;20.60;20.00
6496;DHT22;3281;47.658;9.166;2022-08-07T09:52:04;20.60;45.60
6496;DHT22;3281;47.658;9.166;2022-08-07T09:54:38;20.60;40.60
6496;DHT22;3281;47.658;9.166;2022-08-07T10:00:07;20.60;34.60
6496;DHT22;3281;47.658;9.166;2022-08-07T10:03:01;20.50;45.50
6496;DHT22;3281;47.658;9.166;2022-08-07T10:11:29;20.70;38.60
6496;DHT22;3281;47.658;9.166;2022-08-07T10:14:05;20.60;29.70
6496;DHT22;3281;47.658;9.166;2022-08-07T10:16:46;20.60;14.00
6496;DHT22;3281;47.658;9.166;2022-08-07T10:19:24;20.70;31.90
6496;DHT22;3281;47.658;9.166;2022-08-07T10:22:07;20.60;34.60
6496;DHT22;3281;47.658;9.166;2022-08-07T10:24:49;20.70;46.40
6496;DHT22;3281;47.658;9.166;2022-08-07T10:27:34;20.90;14.50
6496;DHT22;3281;47.658;9.166;2022-08-07T10:30:06;20.90;15.70
6496;DHT22;3281;47.658;9.166;2022-08-07T10:32:44;21.00;27.70
6496;DHT22;3281;47.658;9.166;2022-08-07T10:35:20;20.90;11.20
6496;DHT22;3281;47.658;9.166;2022-08-07T10:38:04;21.00;22.90
6496;DHT22;3281;47.658;9.166;2022-08-07T10:40:37;21.00;30.00
6496;DHT22;3281;47.658;9.166;2022-08-07T10:43:13;21.00;43.10
6496;DHT22;3281;47.658;9.166;2022-08-07T10:45:46;21.00;7.60
6496;DHT22;3281;47.658;9.166;2022-08-07T10:48:24;21.20;14.60
6496;DHT22;3281;47.658;9.166;2022-08-07T10:50:54;21.20;6.40
6496;DHT22;3281;47.658;9.166;2022-08-07T10:53:26;21.30;1.00
6496;DHT22;3281;47.658;9.166;2022-08-07T10:56:01;21.40;1.00
6496;DHT22;3281;47.658;9.166;2022-08-07T10:58:51;21.40;1.00
6496;DHT22;3281;47.658;9.166;2022-08-07T11:01:27;21.40;1.00
6496;DHT22;3281;47.658;9.166;2022-08-07T11:04:00;21.50;1.00
6496;DHT22;3281;47.658;9.166;2022-08-07T11:06:39;21.50;1.00
6496;DHT22;3281;47.658;9.166;2022-08-07T11:09:10;21.60;1.00
6496;DHT22;3281;47.658;9.166;2022-08-07T11:11:43;21.50;6.60
6496;DHT22;3281;47.658;9.166;2022-08-07T11:14:19;21.60;14.60
6496;DHT22;3281;47.658;9.166;2022-08-07T11:16:49;21.50;6.60
6496;DHT22;3281;47.658;9.166;2022-08-07T11:19:23;21.60;1.00
6496;DHT22;3281;47.658;9.166;2022-08-07T11:21:58;21.70;1.00
6496;DHT22;3281;47.658;9.166;2022-08-07T11:24:38;21.70;6.50
6496;DHT22;3281;47.658;9.166;2022-08-07T11:27:11;21.80;1.80
6496;DHT22;3281;47.658;9.166;2022-08-07T11:29:53;21.70;1.00
6496;DHT22;3281;47.658;9.166;2022-08-07T11:32:29;21.70;14.80
6496;DHT22;3281;47.658;9.166;2022-08-07T11:35:06;21.80;1.00
6496;DHT22;3281;47.658;9.166;2022-08-07T11:37:50;21.80;19.80
6496;DHT22;3281;47.658;9.166;2022-08-07T11:40:28;21.80;1.00
6496;DHT22;3281;47.658;9.166;2022-08-07T11:43:05;21.90;1.00
6496;DHT22;3281;47.658;9.166;2022-08-07T11:45:44;21.80;2.20
6496;DHT22;3281;47.658;9.166;2022-08-07T11:48:34;21.90;1.00
6496;DHT22;3281;47.658;9.166;2022-08-07T11:51:19;22.00;1.00
6496;DHT22;3281;47.658;9.166;2022-08-07T11:53:56;22.00;1.00
6496;DHT22;3281;47.658;9.166;2022-08-07T11:56:38;21.90;1.00
6496;DHT22;3281;47.658;9.166;2022-08-07T11:59:20;22.00;1.00
6496;DHT22;3281;47.658;9.166;2022-08-07T12:01:59;22.00;1.00
6496;DHT22;3281;47.658;9.166;2022-08-07T12:04:45;21.90;1.00
6496;DHT22;3281;47.658;9.166;2022-08-07T12:07:23;21.90;4.40
6496;DHT22;3281;47.658;9.166;2022-08-07T12:09:57;22.00;23.30
6496;DHT22;3281;47.658;9.166;2022-08-07T12:12:34;22.00;1.00
6496;DHT22;3281;47.658;9.166;2022-08-07T12:15:05;22.00;1.00
6496;DHT22;3281;47.658;9.166;2022-08-07T12:17:40;22.10;15.90
6496;DHT22;3281;47.658;9.166;2022-08-07T12:20:22;22.10;9.80
6496;DHT22;3281;47.658;9.166;2022-08-07T12:23:10;22.00;1.00
6496;DHT22;3281;47.658;9.166;2022-08-07T12:25:45;22.10;14.00
6496;DHT22;3281;47.658;9.166;2022-08-07T12:28:24;22.10;1.00
6496;DHT22;3281;47.658;9.166;2022-08-07T12:30:56;22.20;1.00
6496;DHT22;3281;47.658;9.166;2022-08-07T12:33:27;22.20;2.20
6496;DHT22;3281;47.658;9.166;2022-08-07T12:35:57;22.30;2.40
6496;DHT22;3281;47.658;9.166;2022-08-07T12:38:25;22.20;1.00
6496;DHT22;3281;47.658;9.166;2022-08-07T12:40:53;22.30;1.00
6496;DHT22;3281;47.658;9.166;2022-08-07T12:43:24;22.30;1.00
6496;DHT22;3281;47.658;9.166;2022-08-07T12:45:57;22.30;1.00
6496;DHT22;3281;47.658;9.166;2022-08-07T12:48:38;22.30;1.00
6496;DHT22;3281;47.658;9.166;2022-08-07T12:51:11;22.30;1.00
6496;DHT22;3281;47.658;9.166;2022-08-07T12:53:42;22.30;1.00
6496;DHT22;3281;47.658;9.166;2022-08-07T12:56:18;22.30;1.00
6496;DHT22;3281;47.658;9.166;2022-08-07T12:58:48;22.30;1.00
6496;DHT22;3281;47.658;9.166;2022-08-07T13:01:28;22.30;1.00
6496;DHT22;3281;47.658;9.166;2022-08-07T13:04:13;22.30;1.00
6496;DHT22;3281;47.658;9.166;2022-08-07T13:06:54;22.30;15.70
6496;DHT22;3281;47.658;9.166;2022-08-07T13:09:35;22.40;1.00
6496;DHT22;3281;47.658;9.166;2022-08-07T13:12:13;22.30;1.00
6496;DHT22;3281;47.658;9.166;2022-08-07T13:14:47;22.30;1.00
6496;DHT22;3281;47.658;9.166;2022-08-07T13:17:22;22.30;1.00
6496;DHT22;3281;47.658;9.166;2022-08-07T13:19:53;22.30;1.00
6496;DHT22;3281;47.658;9.166;2022-08-07T13:22:28;22.30;1.00
6496;DHT22;3281;47.658;9.166;2022-08-07T13:25:00;22.30;1.00
6496;DHT22;3281;47.658;9.166;2022-08-07T13:27:33;22.30;1.00
6496;DHT22;3281;47.658;9.166;2022-08-07T13:30:03;22.20;1.00
6496;DHT22;3281;47.658;9.166;2022-08-07T13:32:38;22.20;1.00
6496;DHT22;3281;47.658;9.166;2022-08-07T13:35:11;22.30;1.00
6496;DHT22;3281;47.658;9.166;2022-08-07T13:37:50;22.40;1.00
6496;DHT22;3281;47.658;9.166;2022-08-07T13:40:24;22.30;1.00
6496;DHT22;3281;47.658;9.166;2022-08-07T13:42:56;22.30;1.00
6496;DHT22;3281;47.658;9.166;2022-08-07T13:45:25;22.40;1.00
6496;DHT22;3281;47.658;9.166;2022-08-07T13:47:54;22.30;1.00
6496;DHT22;3281;47.658;9.166;2022-08-07T13:50:25;22.30;1.00
6496;DHT22;3281;47.658;9.166;2022-08-07T13:52:54;22.30;1.00
6496;DHT22;3281;47.658;9.166;2022-08-07T13:55:22;22.30;1.00
6496;DHT22;3281;47.658;9.166;2022-08-07T13:57:52;22.20;1.00
6496;DHT22;3281;47.658;9.166;2022-08-07T14:00:29;22.20;1.00
6496;DHT22;3281;47.658;9.166;2022-08-07T14:03:03;22.20;1.00
6496;DHT22;3281;47.658;9.166;2022-08-07T14:05:32;22.30;1.00
6496;DHT22;3281;47.658;9.166;2022-08-07T14:08:02;22.30;1.00
6496;DHT22;3281;47.658;9.166;2022-08-07T14:10:33;22.40;1.00
6496;DHT22;3281;47.658;9.166;2022-08-07T14:13:02;22.40;1.00
6496;DHT22;3281;47.658;9.166;2022-08-07T14:15:34;22.40;1.00
6496;DHT22;3281;47.658;9.166;2022-08-07T14:18:04;22.30;1.00
6496;DHT22;3281;47.658;9.166;2022-08-07T14:20:36;22.30;2.40
6496;DHT22;3281;47.658;9.166;2022-08-07T14:23:05;22.30;7.50
6496;DHT22;3281;47.658;9.166;2022-08-07T14:25:35;22.40;7.20
6496;DHT22;3281;47.658;9.166;2022-08-07T14:28:06;22.40;3.20
6496;DHT22;3281;47.658;9.166;2022-08-07T14:30:35;22.40;1.00
6496;DHT22;3281;47.658;9.166;2022-08-07T14:33:03;22.40;9.80
6496;DHT22;3281;47.658;9.166;2022-08-07T14:35:34;22.50;1.00
6496;DHT22;3281;47.658;9.166;2022-08-07T14:38:02;22.40;1.00
6496;DHT22;3281;47.658;9.166;2022-08-07T14:40:31;22.40;1.00
6496;DHT22;3281;47.658;9.166;2022-08-07T14:43:03;22.30;1.00
6496;DHT22;3281;47.658;9.166;2022-08-07T14:45:34;22.30;1.00
6496;DHT22;3281;47.658;9.166;2022-08-07T14:48:06;22.30;1.00
6496;DHT22;3281;47.658;9.166;2022-08-07T14:50:41;22.40;1.00
6496;DHT22;3281;47.658;9.166;2022-08-07T14:53:09;22.40;1.00
6496;DHT22;3281;47.658;9.166;2022-08-07T14:55:37;22.40;1.00
6496;DHT22;3281;47.658;9.166;2022-08-07T14:58:06;22.30;5.90
6496;DHT22;3281;47.658;9.166;2022-08-07T15:00:35;22.30;8.70
6496;DHT22;3281;47.658;9.166;2022-08-07T15:03:05;22.20;1.00
6496;DHT22;3281;47.658;9.166;2022-08-07T15:05:33;22.10;1.00
6496;DHT22;3281;47.658;9.166;2022-08-07T15:08:05;22.10;1.00
6496;DHT22;3281;47.658;9.166;2022-08-07T15:10:34;22.10;1.00
6496;DHT22;3281;47.658;9.166;2022-08-07T15:13:09;22.10;1.00
6496;DHT22;3281;47.658;9.166;2022-08-07T15:15:44;22.00;1.00
6496;DHT22;3281;47.658;9.166;2022-08-07T15:18:14;22.00;1.00
6496;DHT22;3281;47.658;9.166;2022-08-07T15:20:44;22.10;1.00
6496;DHT22;3281;47.658;9.166;2022-08-07T15:23:19;22.00;1.00
6496;DHT22;3281;47.658;9.166;2022-08-07T15:25:53;22.00;1.00
6496;DHT22;3281;47.658;9.166;2022-08-07T15:28:23;22.00;1.00
6496;DHT22;3281;47.658;9.166;2022-08-07T15:30:51;21.90;1.00
6496;DHT22;3281;47.658;9.166;2022-08-07T15:33:20;22.00;1.00
6496;DHT22;3281;47.658;9.166;2022-08-07T15:35:49;22.00;1.00
6496;DHT22;3281;47.658;9.166;2022-08-07T15:38:18;22.10;1.00
6496;DHT22;3281;47.658;9.166;2022-08-07T15:40:50;22.10;1.00
6496;DHT22;3281;47.658;9.166;2022-08-07T15:43:22;22.00;1.00
6496;DHT22;3281;47.658;9.166;2022-08-07T15:45:50;22.00;1.00
6496;DHT22;3281;47.658;9.166;2022-08-07T15:48:22;22.00;1.00
6496;DHT22;3281;47.658;9.166;2022-08-07T15:50:52;21.90;6.90
6496;DHT22;3281;47.658;9.166;2022-08-07T15:53:26;21.90;1.00
6496;DHT22;3281;47.658;9.166;2022-08-07T15:55:58;21.90;1.00
6496;DHT22;3281;47.658;9.166;2022-08-07T15:58:31;21.90;1.00
6496;DHT22;3281;47.658;9.166;2022-08-07T16:01:01;22.00;1.00
6496;DHT22;3281;47.658;9.166;2022-08-07T16:03:31;22.00;1.00
6496;DHT22;3281;47.658;9.166;2022-08-07T16:06:00;22.10;1.00
6496;DHT22;3281;47.658;9.166;2022-08-07T16:08:30;21.90;1.00
6496;DHT22;3281;47.658;9.166;2022-08-07T16:11:01;22.00;1.00
6496;DHT22;3281;47.658;9.166;2022-08-07T16:13:49;22.00;1.00
6496;DHT22;3281;47.658;9.166;2022-08-07T16:16:28;22.00;1.00
6496;DHT22;3281;47.658;9.166;2022-08-07T16:19:06;22.00;1.00
6496;DHT22;3281;47.658;9.166;2022-08-07T16:21:45;22.00;1.00
6496;DHT22;3281;47.658;9.166;2022-08-07T16:24:25;22.10;1.00
6496;DHT22;3281;47.658;9.166;2022-08-07T16:27:02;21.90;1.00
6496;DHT22;3281;47.658;9.166;2022-08-07T16:29:51;21.90;1.00
6496;DHT22;3281;47.658;9.166;2022-08-07T16:32:26;21.90;1.00
6496;DHT22;3281;47.658;9.166;2022-08-07T16:34:56;21.90;1.00
6496;DHT22;3281;47.658;9.166;2022-08-07T16:38:04;21.80;1.00
6496;DHT22;3281;47.658;9.166;2022-08-07T16:41:00;21.80;1.00
6496;DHT22;3281;47.658;9.166;2022-08-07T16:43:52;21.80;1.00
6496;DHT22;3281;47.658;9.166;2022-08-07T16:46:41;21.70;1.00